sensor_id;sensor_type;location;lat;lon;timestamp;P1;durP1;ratioP1;P2;durP2;ratioP2
19846;SDS011;10084;50.518;8.588;2023-11-21T00:00:02;0.93;;;0.70;;
19846;SDS011;10084;50.518;8.588;2023-11-21T00:02:38;1.10;;;1.00;;
19846;SDS011;10084;50.518;8.588;2023-11-21T00:05:06;0.80;;;0.40;;
19846;SDS011;10084;50.518;8.588;2023-11-21T00:07:33;1.10;;;0.53;;
19846;SDS011;10084;50.518;8.588;2023-11-21T00:09:59;0.57;;;0.57;;
19846;SDS011;10084;50.518;8.588;2023-11-21T00:12:24;1.20;;;0.60;;
19846;SDS011;10084;50.518;8.588;2023-11-21T00:14:50;0.70;;;0.70;;
19846;SDS011;10084;50.518;8.588;2023-11-21T00:17:16;1.43;;;1.20;;
19846;SDS011;10084;50.518;8.588;2023-11-21T00:19:41;0.80;;;0.47;;
19846;SDS011;10084;50.518;8.588;2023-11-21T00:22:08;2.63;;;0.90;;
19846;SDS011;10084;50.518;8.588;2023-11-21T00:24:34;0.57;;;0.57;;
19846;SDS011;10084;50.518;8.588;2023-11-21T00:27:00;1.63;;;1.40;;
19846;SDS011;10084;50.518;8.588;2023-11-21T00:29:25;0.60;;;0.60;;
19846;SDS011;10084;50.518;8.588;2023-11-21T00:31:52;0.50;;;0.50;;
19846;SDS011;10084;50.518;8.588;2023-11-21T00:34:17;1.30;;;0.30;;
19846;SDS011;10084;50.518;8.588;2023-11-21T00:36:43;0.60;;;0.60;;
19846;SDS011;10084;50.518;8.588;2023-11-21T00:39:09;1.23;;;0.70;;
19846;SDS011;10084;50.518;8.588;2023-11-21T00:41:35;0.63;;;0.57;;
19846;SDS011;10084;50.518;8.588;2023-11-21T00:44:01;0.60;;;0.40;;
19846;SDS011;10084;50.518;8.588;2023-11-21T00:46:27;0.73;;;0.73;;
19846;SDS011;10084;50.518;8.588;2023-11-21T00:48:54;1.47;;;1.37;;
19846;SDS011;10084;50.518;8.588;2023-11-21T00:51:20;1.00;;;0.60;;
19846;SDS011;10084;50.518;8.588;2023-11-21T00:53:47;1.07;;;0.53;;
19846;SDS011;10084;50.518;8.588;2023-11-21T00:56:13;0.30;;;0.30;;
19846;SDS011;10084;50.518;8.588;2023-11-21T00:58:40;0.73;;;0.60;;
19846;SDS011;10084;50.518;8.588;2023-11-21T01:01:09;0.30;;;0.30;;
19846;SDS011;10084;50.518;8.588;2023-11-21T01:03:35;0.60;;;0.60;;
19846;SDS011;10084;50.518;8.588;2023-11-21T01:06:00;0.30;;;0.30;;
19846;SDS011;10084;50.518;8.588;2023-11-21T01:08:26;0.47;;;0.40;;
19846;SDS011;10084;50.518;8.588;2023-11-21T01:10:52;0.73;;;0.73;;
19846;SDS011;10084;50.518;8.588;2023-11-21T01:13:17;0.57;;;0.30;;
19846;SDS011;10084;50.518;8.588;2023-11-21T01:15:43;0.40;;;0.40;;
19846;SDS011;10084;50.518;8.588;2023-11-21T01:18:09;0.40;;;0.40;;
19846;SDS011;10084;50.518;8.588;2023-11-21T01:20:35;0.30;;;0.20;;
19846;SDS011;10084;50.518;8.588;2023-11-21T01:23:00;0.90;;;0.60;;
19846;SDS011;10084;50.518;8.588;2023-11-21T01:25:26;0.80;;;0.60;;
19846;SDS011;10084;50.518;8.588;2023-11-21T01:27:52;1.10;;;0.63;;
19846;SDS011;10084;50.518;8.588;2023-11-21T01:30:18;1.00;;;0.90;;
19846;SDS011;10084;50.518;8.588;2023-11-21T01:32:44;1.33;;;1.00;;
19846;SDS011;10084;50.518;8.588;2023-11-21T01:35:10;1.47;;;1.00;;
19846;SDS011;10084;50.518;8.588;2023-11-21T01:37:36;1.20;;;0.90;;
19846;SDS011;10084;50.518;8.588;2023-11-21T01:40:03;0.70;;;0.70;;
19846;SDS011;10084;50.518;8.588;2023-11-21T01:42:33;0.67;;;0.67;;
19846;SDS011;10084;50.518;8.588;2023-11-21T01:45:00;1.03;;;0.50;;
19846;SDS011;10084;50.518;8.588;2023-11-21T01:47:30;1.43;;;1.20;;
19846;SDS011;10084;50.518;8.588;2023-11-21T01:49:57;2.17;;;1.20;;
19846;SDS011;10084;50.518;8.588;2023-11-21T01:52:23;1.23;;;0.90;;
19846;SDS011;10084;50.518;8.588;2023-11-21T01:54:50;1.40;;;1.13;;
19846;SDS011;10084;50.518;8.588;2023-11-21T01:57:15;1.00;;;0.93;;
19846;SDS011;10084;50.518;8.588;2023-11-21T01:59:42;0.70;;;0.70;;
19846;SDS011;10084;50.518;8.588;2023-11-21T02:02:09;1.13;;;0.70;;
19846;SDS011;10084;50.518;8.588;2023-11-21T02:04:37;0.73;;;0.73;;
19846;SDS011;10084;50.518;8.588;2023-11-21T02:07:03;2.40;;;1.10;;
19846;SDS011;10084;50.518;8.588;2023-11-21T02:09:30;2.33;;;1.97;;
19846;SDS011;10084;50.518;8.588;2023-11-21T02:11:59;9.43;;;0.87;;
19846;SDS011;10084;50.518;8.588;2023-11-21T02:14:26;2.10;;;1.30;;
19846;SDS011;10084;50.518;8.588;2023-11-21T02:16:53;1.90;;;1.73;;
19846;SDS011;10084;50.518;8.588;2023-11-21T02:19:21;1.30;;;1.20;;
19846;SDS011;10084;50.518;8.588;2023-11-21T02:21:54;1.00;;;1.00;;
19846;SDS011;10084;50.518;8.588;2023-11-21T02:24:28;0.70;;;0.67;;
19846;SDS011;10084;50.518;8.588;2023-11-21T02:26:54;2.73;;;1.30;;
19846;SDS011;10084;50.518;8.588;2023-11-21T02:29:20;2.47;;;0.87;;
19846;SDS011;10084;50.518;8.588;2023-11-21T02:31:55;1.20;;;1.10;;
19846;SDS011;10084;50.518;8.588;2023-11-21T02:34:22;2.07;;;1.07;;
19846;SDS011;10084;50.518;8.588;2023-11-21T02:36:50;0.70;;;0.70;;
19846;SDS011;10084;50.518;8.588;2023-11-21T02:39:16;1.00;;;0.97;;
19846;SDS011;10084;50.518;8.588;2023-11-21T02:41:43;1.33;;;0.90;;
19846;SDS011;10084;50.518;8.588;2023-11-21T02:44:09;1.37;;;0.83;;
19846;SDS011;10084;50.518;8.588;2023-11-21T02:46:35;0.80;;;0.70;;
19846;SDS011;10084;50.518;8.588;2023-11-21T02:49:05;4.33;;;0.70;;
19846;SDS011;10084;50.518;8.588;2023-11-21T02:51:32;0.90;;;0.87;;
19846;SDS011;10084;50.518;8.588;2023-11-21T02:53:58;0.80;;;0.80;;
19846;SDS011;10084;50.518;8.588;2023-11-21T02:56:27;0.90;;;0.43;;
19846;SDS011;10084;50.518;8.588;2023-11-21T02:58:55;0.67;;;0.63;;
19846;SDS011;10084;50.518;8.588;2023-11-21T03:01:21;1.03;;;0.93;;
19846;SDS011;10084;50.518;8.588;2023-11-21T03:03:49;0.20;;;0.20;;
19846;SDS011;10084;50.518;8.588;2023-11-21T03:06:16;1.17;;;0.73;;
19846;SDS011;10084;50.518;8.588;2023-11-21T03:08:43;0.50;;;0.50;;
19846;SDS011;10084;50.518;8.588;2023-11-21T03:11:09;1.03;;;0.63;;
19846;SDS011;10084;50.518;8.588;2023-11-21T03:13:34;16.33;;;0.73;;
19846;SDS011;10084;50.518;8.588;2023-11-21T03:16:00;0.43;;;0.43;;
19846;SDS011;10084;50.518;8.588;2023-11-21T03:18:26;0.53;;;0.50;;
19846;SDS011;10084;50.518;8.588;2023-11-21T03:20:54;0.50;;;0.50;;
19846;SDS011;10084;50.518;8.588;2023-11-21T03:23:20;0.70;;;0.70;;
19846;SDS011;10084;50.518;8.588;2023-11-21T03:25:46;0.70;;;0.50;;
19846;SDS011;10084;50.518;8.588;2023-11-21T03:28:11;0.40;;;0.30;;
19846;SDS011;10084;50.518;8.588;2023-11-21T03:30:38;0.50;;;0.50;;
19846;SDS011;10084;50.518;8.588;2023-11-21T03:33:03;5.73;;;0.47;;
19846;SDS011;10084;50.518;8.588;2023-11-21T03:35:29;6.50;;;1.20;;
19846;SDS011;10084;50.518;8.588;2023-11-21T03:37:55;0.63;;;0.63;;
19846;SDS011;10084;50.518;8.588;2023-11-21T03:40:21;0.30;;;0.20;;
19846;SDS011;10084;50.518;8.588;2023-11-21T03:42:47;0.40;;;0.40;;
19846;SDS011;10084;50.518;8.588;2023-11-21T03:45:13;2.10;;;0.57;;
19846;SDS011;10084;50.518;8.588;2023-11-21T03:47:41;4.70;;;0.50;;
19846;SDS011;10084;50.518;8.588;2023-11-21T03:50:07;0.70;;;0.57;;
19846;SDS011;10084;50.518;8.588;2023-11-21T03:52:34;0.70;;;0.43;;
19846;SDS011;10084;50.518;8.588;2023-11-21T03:55:01;2.60;;;0.80;;
19846;SDS011;10084;50.518;8.588;2023-11-21T03:57:27;0.63;;;0.60;;
19846;SDS011;10084;50.518;8.588;2023-11-21T03:59:53;0.40;;;0.40;;
19846;SDS011;10084;50.518;8.588;2023-11-21T04:02:19;1.30;;;1.20;;
19846;SDS011;10084;50.518;8.588;2023-11-21T04:04:45;0.30;;;0.30;;
19846;SDS011;10084;50.518;8.588;2023-11-21T04:07:11;0.63;;;0.63;;
19846;SDS011;10084;50.518;8.588;2023-11-21T04:09:38;1.53;;;1.37;;
19846;SDS011;10084;50.518;8.588;2023-11-21T04:12:05;1.70;;;1.30;;
19846;SDS011;10084;50.518;8.588;2023-11-21T04:14:32;2.37;;;2.17;;
19846;SDS011;10084;50.518;8.588;2023-11-21T04:16:58;2.23;;;1.80;;
19846;SDS011;10084;50.518;8.588;2023-11-21T04:19:23;2.00;;;1.83;;
19846;SDS011;10084;50.518;8.588;2023-11-21T04:21:49;2.93;;;1.17;;
19846;SDS011;10084;50.518;8.588;2023-11-21T04:24:15;4.27;;;3.33;;
19846;SDS011;10084;50.518;8.588;2023-11-21T04:26:41;1.43;;;1.30;;
19846;SDS011;10084;50.518;8.588;2023-11-21T04:29:06;3.70;;;1.90;;
19846;SDS011;10084;50.518;8.588;2023-11-21T04:31:32;1.83;;;1.43;;
19846;SDS011;10084;50.518;8.588;2023-11-21T04:33:58;4.80;;;2.13;;
19846;SDS011;10084;50.518;8.588;2023-11-21T04:36:23;2.30;;;1.73;;
19846;SDS011;10084;50.518;8.588;2023-11-21T04:38:49;1.70;;;1.30;;
19846;SDS011;10084;50.518;8.588;2023-11-21T04:41:15;1.57;;;1.47;;
19846;SDS011;10084;50.518;8.588;2023-11-21T04:43:41;2.47;;;1.97;;
19846;SDS011;10084;50.518;8.588;2023-11-21T04:46:07;3.17;;;1.80;;
19846;SDS011;10084;50.518;8.588;2023-11-21T04:48:33;2.50;;;1.90;;
19846;SDS011;10084;50.518;8.588;2023-11-21T04:50:59;2.83;;;1.80;;
19846;SDS011;10084;50.518;8.588;2023-11-21T04:53:25;1.57;;;1.40;;
19846;SDS011;10084;50.518;8.588;2023-11-21T04:55:50;2.33;;;1.60;;
19846;SDS011;10084;50.518;8.588;2023-11-21T04:58:16;1.47;;;0.93;;
19846;SDS011;10084;50.518;8.588;2023-11-21T05:00:42;1.13;;;1.07;;
19846;SDS011;10084;50.518;8.588;2023-11-21T05:03:09;1.53;;;1.43;;
19846;SDS011;10084;50.518;8.588;2023-11-21T05:05:34;2.10;;;1.30;;
19846;SDS011;10084;50.518;8.588;2023-11-21T05:08:00;4.33;;;1.47;;
19846;SDS011;10084;50.518;8.588;2023-11-21T05:10:26;1.60;;;1.10;;
19846;SDS011;10084;50.518;8.588;2023-11-21T05:12:52;1.40;;;1.30;;
19846;SDS011;10084;50.518;8.588;2023-11-21T05:15:18;2.03;;;1.63;;
19846;SDS011;10084;50.518;8.588;2023-11-21T05:17:44;1.60;;;1.20;;
19846;SDS011;10084;50.518;8.588;2023-11-21T05:20:13;1.47;;;1.30;;
19846;SDS011;10084;50.518;8.588;2023-11-21T05:22:43;1.67;;;1.50;;
19846;SDS011;10084;50.518;8.588;2023-11-21T05:25:08;2.53;;;2.33;;
19846;SDS011;10084;50.518;8.588;2023-11-21T05:27:35;2.10;;;1.37;;
19846;SDS011;10084;50.518;8.588;2023-11-21T05:30:04;1.97;;;1.87;;
19846;SDS011;10084;50.518;8.588;2023-11-21T05:32:31;1.60;;;1.50;;
19846;SDS011;10084;50.518;8.588;2023-11-21T05:34:57;2.17;;;1.87;;
19846;SDS011;10084;50.518;8.588;2023-11-21T05:37:23;2.60;;;1.70;;
19846;SDS011;10084;50.518;8.588;2023-11-21T05:39:50;2.23;;;2.03;;
19846;SDS011;10084;50.518;8.588;2023-11-21T05:42:16;3.00;;;1.43;;
19846;SDS011;10084;50.518;8.588;2023-11-21T05:44:42;3.83;;;1.53;;
19846;SDS011;10084;50.518;8.588;2023-11-21T05:47:10;2.10;;;1.17;;
19846;SDS011;10084;50.518;8.588;2023-11-21T05:49:38;2.13;;;1.60;;
19846;SDS011;10084;50.518;8.588;2023-11-21T05:52:04;4.67;;;2.13;;
19846;SDS011;10084;50.518;8.588;2023-11-21T05:54:30;1.53;;;1.43;;
19846;SDS011;10084;50.518;8.588;2023-11-21T05:56:56;3.63;;;1.43;;
19846;SDS011;10084;50.518;8.588;2023-11-21T05:59:22;2.53;;;1.33;;
19846;SDS011;10084;50.518;8.588;2023-11-21T06:01:48;2.27;;;2.03;;
19846;SDS011;10084;50.518;8.588;2023-11-21T06:04:14;1.77;;;1.67;;
19846;SDS011;10084;50.518;8.588;2023-11-21T06:06:39;5.73;;;1.10;;
19846;SDS011;10084;50.518;8.588;2023-11-21T06:09:05;1.73;;;1.60;;
19846;SDS011;10084;50.518;8.588;2023-11-21T06:11:33;1.83;;;1.43;;
19846;SDS011;10084;50.518;8.588;2023-11-21T06:13:59;5.10;;;2.47;;
19846;SDS011;10084;50.518;8.588;2023-11-21T06:16:25;1.80;;;1.40;;
19846;SDS011;10084;50.518;8.588;2023-11-21T06:18:50;2.20;;;1.43;;
19846;SDS011;10084;50.518;8.588;2023-11-21T06:21:16;2.50;;;2.20;;
19846;SDS011;10084;50.518;8.588;2023-11-21T06:23:43;3.50;;;1.37;;
19846;SDS011;10084;50.518;8.588;2023-11-21T06:26:08;2.03;;;1.50;;
19846;SDS011;10084;50.518;8.588;2023-11-21T06:28:34;2.90;;;1.80;;
19846;SDS011;10084;50.518;8.588;2023-11-21T06:31:01;3.17;;;1.87;;
19846;SDS011;10084;50.518;8.588;2023-11-21T06:33:31;2.43;;;1.93;;
19846;SDS011;10084;50.518;8.588;2023-11-21T06:35:57;1.20;;;1.00;;
19846;SDS011;10084;50.518;8.588;2023-11-21T06:38:23;2.67;;;1.43;;
19846;SDS011;10084;50.518;8.588;2023-11-21T06:40:49;5.73;;;1.10;;
19846;SDS011;10084;50.518;8.588;2023-11-21T06:43:15;4.40;;;1.67;;
19846;SDS011;10084;50.518;8.588;2023-11-21T06:45:41;1.40;;;0.97;;
19846;SDS011;10084;50.518;8.588;2023-11-21T06:48:06;2.60;;;1.93;;
19846;SDS011;10084;50.518;8.588;2023-11-21T06:50:32;1.93;;;1.37;;
19846;SDS011;10084;50.518;8.588;2023-11-21T06:52:58;1.90;;;1.40;;
19846;SDS011;10084;50.518;8.588;2023-11-21T06:55:23;2.00;;;1.90;;
19846;SDS011;10084;50.518;8.588;2023-11-21T06:57:49;6.00;;;2.00;;
19846;SDS011;10084;50.518;8.588;2023-11-21T07:00:15;2.43;;;1.60;;
19846;SDS011;10084;50.518;8.588;2023-11-21T07:02:43;6.63;;;1.57;;
19846;SDS011;10084;50.518;8.588;2023-11-21T07:05:09;3.77;;;0.67;;
19846;SDS011;10084;50.518;8.588;2023-11-21T07:07:34;1.07;;;1.03;;
19846;SDS011;10084;50.518;8.588;2023-11-21T07:10:02;1.07;;;0.97;;
19846;SDS011;10084;50.518;8.588;2023-11-21T07:12:30;1.43;;;1.33;;
19846;SDS011;10084;50.518;8.588;2023-11-21T07:14:59;1.17;;;1.07;;
19846;SDS011;10084;50.518;8.588;2023-11-21T07:17:25;1.23;;;0.80;;
19846;SDS011;10084;50.518;8.588;2023-11-21T07:19:51;1.43;;;1.33;;
19846;SDS011;10084;50.518;8.588;2023-11-21T07:22:16;1.67;;;1.53;;
19846;SDS011;10084;50.518;8.588;2023-11-21T07:24:49;3.40;;;1.77;;
19846;SDS011;10084;50.518;8.588;2023-11-21T07:27:16;1.57;;;1.40;;
19846;SDS011;10084;50.518;8.588;2023-11-21T07:29:41;1.43;;;1.10;;
19846;SDS011;10084;50.518;8.588;2023-11-21T07:32:07;2.40;;;1.27;;
19846;SDS011;10084;50.518;8.588;2023-11-21T07:34:34;1.43;;;1.00;;
19846;SDS011;10084;50.518;8.588;2023-11-21T07:37:01;1.47;;;1.37;;
19846;SDS011;10084;50.518;8.588;2023-11-21T07:39:27;3.27;;;2.10;;
19846;SDS011;10084;50.518;8.588;2023-11-21T07:41:54;1.00;;;0.90;;
19846;SDS011;10084;50.518;8.588;2023-11-21T07:44:20;1.67;;;1.57;;
19846;SDS011;10084;50.518;8.588;2023-11-21T07:46:46;2.33;;;2.13;;
19846;SDS011;10084;50.518;8.588;2023-11-21T07:49:12;2.70;;;1.97;;
19846;SDS011;10084;50.518;8.588;2023-11-21T07:51:41;1.33;;;1.23;;
19846;SDS011;10084;50.518;8.588;2023-11-21T07:54:07;3.27;;;1.43;;
19846;SDS011;10084;50.518;8.588;2023-11-21T07:56:33;3.93;;;1.40;;
19846;SDS011;10084;50.518;8.588;2023-11-21T07:58:58;0.90;;;0.73;;
19846;SDS011;10084;50.518;8.588;2023-11-21T08:01:24;0.73;;;0.73;;
19846;SDS011;10084;50.518;8.588;2023-11-21T08:03:50;4.60;;;0.93;;
19846;SDS011;10084;50.518;8.588;2023-11-21T08:06:17;0.90;;;0.90;;
19846;SDS011;10084;50.518;8.588;2023-11-21T08:08:43;2.77;;;1.50;;
19846;SDS011;10084;50.518;8.588;2023-11-21T08:11:09;1.10;;;0.80;;
19846;SDS011;10084;50.518;8.588;2023-11-21T08:13:36;1.97;;;1.13;;
19846;SDS011;10084;50.518;8.588;2023-11-21T08:16:01;2.03;;;0.77;;
19846;SDS011;10084;50.518;8.588;2023-11-21T08:18:27;3.70;;;0.80;;
19846;SDS011;10084;50.518;8.588;2023-11-21T08:20:54;7.23;;;0.63;;
19846;SDS011;10084;50.518;8.588;2023-11-21T08:23:20;1.07;;;0.97;;
19846;SDS011;10084;50.518;8.588;2023-11-21T08:25:50;1.00;;;0.93;;
19846;SDS011;10084;50.518;8.588;2023-11-21T08:28:16;0.77;;;0.70;;
19846;SDS011;10084;50.518;8.588;2023-11-21T08:30:42;1.07;;;0.73;;
19846;SDS011;10084;50.518;8.588;2023-11-21T08:33:08;2.07;;;1.47;;
19846;SDS011;10084;50.518;8.588;2023-11-21T08:35:34;0.60;;;0.33;;
19846;SDS011;10084;50.518;8.588;2023-11-21T08:38:01;3.93;;;1.33;;
19846;SDS011;10084;50.518;8.588;2023-11-21T08:40:28;0.93;;;0.67;;
19846;SDS011;10084;50.518;8.588;2023-11-21T08:42:54;1.33;;;0.80;;
19846;SDS011;10084;50.518;8.588;2023-11-21T08:45:20;1.53;;;1.37;;
19846;SDS011;10084;50.518;8.588;2023-11-21T08:47:50;1.50;;;1.27;;
19846;SDS011;10084;50.518;8.588;2023-11-21T08:50:16;7.97;;;1.43;;
19846;SDS011;10084;50.518;8.588;2023-11-21T08:52:42;0.60;;;0.60;;
19846;SDS011;10084;50.518;8.588;2023-11-21T08:55:11;10.50;;;0.73;;
19846;SDS011;10084;50.518;8.588;2023-11-21T08:57:37;0.70;;;0.50;;
19846;SDS011;10084;50.518;8.588;2023-11-21T09:00:04;1.53;;;0.87;;
19846;SDS011;10084;50.518;8.588;2023-11-21T09:02:35;6.50;;;0.50;;
19846;SDS011;10084;50.518;8.588;2023-11-21T09:05:02;2.47;;;2.27;;
19846;SDS011;10084;50.518;8.588;2023-11-21T09:07:29;2.47;;;1.57;;
19846;SDS011;10084;50.518;8.588;2023-11-21T09:09:55;10.67;;;1.73;;
19846;SDS011;10084;50.518;8.588;2023-11-21T09:12:21;0.60;;;0.60;;
19846;SDS011;10084;50.518;8.588;2023-11-21T09:14:47;1.20;;;1.07;;
19846;SDS011;10084;50.518;8.588;2023-11-21T09:17:12;7.87;;;2.07;;
19846;SDS011;10084;50.518;8.588;2023-11-21T09:19:39;3.10;;;2.83;;
19846;SDS011;10084;50.518;8.588;2023-11-21T09:22:06;1.93;;;1.83;;
19846;SDS011;10084;50.518;8.588;2023-11-21T09:24:32;3.13;;;1.03;;
19846;SDS011;10084;50.518;8.588;2023-11-21T09:26:58;4.00;;;1.33;;
19846;SDS011;10084;50.518;8.588;2023-11-21T09:29:28;3.20;;;1.77;;
19846;SDS011;10084;50.518;8.588;2023-11-21T09:31:54;0.87;;;0.87;;
19846;SDS011;10084;50.518;8.588;2023-11-21T09:34:21;2.03;;;1.80;;
19846;SDS011;10084;50.518;8.588;2023-11-21T09:36:47;2.67;;;1.43;;
19846;SDS011;10084;50.518;8.588;2023-11-21T09:39:13;1.13;;;1.07;;
19846;SDS011;10084;50.518;8.588;2023-11-21T09:44:13;0.87;;;0.87;;
19846;SDS011;10084;50.518;8.588;2023-11-21T09:46:42;0.67;;;0.63;;
19846;SDS011;10084;50.518;8.588;2023-11-21T09:49:09;0.50;;;0.33;;
19846;SDS011;10084;50.518;8.588;2023-11-21T09:51:39;1.33;;;0.60;;
19846;SDS011;10084;50.518;8.588;2023-11-21T09:54:07;1.57;;;1.47;;
19846;SDS011;10084;50.518;8.588;2023-11-21T09:56:37;0.43;;;0.40;;
19846;SDS011;10084;50.518;8.588;2023-11-21T09:59:03;0.97;;;0.87;;
19846;SDS011;10084;50.518;8.588;2023-11-21T10:01:34;0.70;;;0.70;;
19846;SDS011;10084;50.518;8.588;2023-11-21T10:04:01;1.17;;;0.50;;
19846;SDS011;10084;50.518;8.588;2023-11-21T10:06:27;1.33;;;0.83;;
19846;SDS011;10084;50.518;8.588;2023-11-21T10:08:55;2.40;;;0.80;;
19846;SDS011;10084;50.518;8.588;2023-11-21T10:11:23;7.57;;;0.87;;
19846;SDS011;10084;50.518;8.588;2023-11-21T10:13:52;1.00;;;0.90;;
19846;SDS011;10084;50.518;8.588;2023-11-21T10:16:19;0.70;;;0.70;;
19846;SDS011;10084;50.518;8.588;2023-11-21T10:18:48;1.33;;;0.53;;
19846;SDS011;10084;50.518;8.588;2023-11-21T10:21:17;0.97;;;0.60;;
19846;SDS011;10084;50.518;8.588;2023-11-21T10:23:43;2.37;;;0.50;;
19846;SDS011;10084;50.518;8.588;2023-11-21T10:26:10;3.17;;;0.90;;
19846;SDS011;10084;50.518;8.588;2023-11-21T10:28:54;1.07;;;0.67;;
19846;SDS011;10084;50.518;8.588;2023-11-21T10:31:23;2.53;;;0.80;;
19846;SDS011;10084;50.518;8.588;2023-11-21T10:33:51;2.50;;;1.00;;
19846;SDS011;10084;50.518;8.588;2023-11-21T10:36:24;0.70;;;0.67;;
19846;SDS011;10084;50.518;8.588;2023-11-21T10:38:51;2.47;;;1.23;;
19846;SDS011;10084;50.518;8.588;2023-11-21T10:41:18;1.33;;;0.70;;
19846;SDS011;10084;50.518;8.588;2023-11-21T10:43:45;1.00;;;0.90;;
19846;SDS011;10084;50.518;8.588;2023-11-21T10:46:11;1.63;;;1.03;;
19846;SDS011;10084;50.518;8.588;2023-11-21T10:48:37;0.83;;;0.80;;
19846;SDS011;10084;50.518;8.588;2023-11-21T10:51:06;4.17;;;1.07;;
19846;SDS011;10084;50.518;8.588;2023-11-21T10:53:38;8.33;;;0.83;;
19846;SDS011;10084;50.518;8.588;2023-11-21T10:56:06;1.00;;;0.80;;
19846;SDS011;10084;50.518;8.588;2023-11-21T10:58:35;3.73;;;1.00;;
19846;SDS011;10084;50.518;8.588;2023-11-21T11:01:03;4.70;;;0.77;;
19846;SDS011;10084;50.518;8.588;2023-11-21T11:03:32;0.90;;;0.90;;
19846;SDS011;10084;50.518;8.588;2023-11-21T11:06:01;1.20;;;1.07;;
19846;SDS011;10084;50.518;8.588;2023-11-21T11:08:28;9.97;;;1.40;;
19846;SDS011;10084;50.518;8.588;2023-11-21T11:10:54;2.63;;;0.87;;
19846;SDS011;10084;50.518;8.588;2023-11-21T11:13:20;4.83;;;0.80;;
19846;SDS011;10084;50.518;8.588;2023-11-21T11:15:47;1.27;;;0.80;;
19846;SDS011;10084;50.518;8.588;2023-11-21T11:18:13;0.67;;;0.60;;
19846;SDS011;10084;50.518;8.588;2023-11-21T11:20:40;1.83;;;1.37;;
19846;SDS011;10084;50.518;8.588;2023-11-21T11:31:50;1.37;;;1.20;;
19846;SDS011;10084;50.518;8.588;2023-11-21T11:34:59;0.70;;;0.67;;
19846;SDS011;10084;50.518;8.588;2023-11-21T11:37:35;2.07;;;1.03;;
19846;SDS011;10084;50.518;8.588;2023-11-21T11:40:01;1.77;;;0.90;;
19846;SDS011;10084;50.518;8.588;2023-11-21T11:42:32;1.30;;;1.20;;
19846;SDS011;10084;50.518;8.588;2023-11-21T11:44:57;6.17;;;1.50;;
19846;SDS011;10084;50.518;8.588;2023-11-21T11:47:31;0.93;;;0.60;;
19846;SDS011;10084;50.518;8.588;2023-11-21T11:50:06;0.60;;;0.53;;
19846;SDS011;10084;50.518;8.588;2023-11-21T11:52:51;1.57;;;0.93;;
19846;SDS011;10084;50.518;8.588;2023-11-21T11:55:23;1.73;;;0.97;;
19846;SDS011;10084;50.518;8.588;2023-11-21T11:57:53;0.80;;;0.77;;
19846;SDS011;10084;50.518;8.588;2023-11-21T12:02:53;1.63;;;1.17;;
19846;SDS011;10084;50.518;8.588;2023-11-21T12:05:20;2.87;;;1.13;;
19846;SDS011;10084;50.518;8.588;2023-11-21T12:10:26;3.10;;;0.90;;
19846;SDS011;10084;50.518;8.588;2023-11-21T12:12:57;1.47;;;0.80;;
19846;SDS011;10084;50.518;8.588;2023-11-21T12:15:24;1.70;;;0.73;;
19846;SDS011;10084;50.518;8.588;2023-11-21T12:17:51;2.23;;;1.10;;
19846;SDS011;10084;50.518;8.588;2023-11-21T12:20:21;7.40;;;1.10;;
19846;SDS011;10084;50.518;8.588;2023-11-21T12:22:49;0.90;;;0.57;;
19846;SDS011;10084;50.518;8.588;2023-11-21T12:25:25;0.83;;;0.77;;
19846;SDS011;10084;50.518;8.588;2023-11-21T12:27:57;2.20;;;0.97;;
19846;SDS011;10084;50.518;8.588;2023-11-21T12:30:24;1.57;;;1.00;;
19846;SDS011;10084;50.518;8.588;2023-11-21T12:32:56;1.10;;;0.90;;
19846;SDS011;10084;50.518;8.588;2023-11-21T12:35:27;0.83;;;0.70;;
19846;SDS011;10084;50.518;8.588;2023-11-21T12:37:56;1.30;;;1.17;;
19846;SDS011;10084;50.518;8.588;2023-11-21T12:40:22;2.77;;;1.07;;
19846;SDS011;10084;50.518;8.588;2023-11-21T12:42:49;2.37;;;1.57;;
19846;SDS011;10084;50.518;8.588;2023-11-21T12:45:20;1.20;;;1.00;;
19846;SDS011;10084;50.518;8.588;2023-11-21T12:47:49;1.60;;;0.63;;
19846;SDS011;10084;50.518;8.588;2023-11-21T12:50:34;1.23;;;0.60;;
19846;SDS011;10084;50.518;8.588;2023-11-21T12:53:05;3.70;;;1.33;;
19846;SDS011;10084;50.518;8.588;2023-11-21T12:55:34;2.03;;;0.77;;
19846;SDS011;10084;50.518;8.588;2023-11-21T12:58:05;1.33;;;1.07;;
19846;SDS011;10084;50.518;8.588;2023-11-21T13:00:35;1.20;;;1.10;;
19846;SDS011;10084;50.518;8.588;2023-11-21T13:03:03;1.73;;;0.77;;
19846;SDS011;10084;50.518;8.588;2023-11-21T13:05:32;8.13;;;1.20;;
19846;SDS011;10084;50.518;8.588;2023-11-21T13:08:03;4.60;;;1.17;;
19846;SDS011;10084;50.518;8.588;2023-11-21T13:10:32;1.50;;;1.40;;
19846;SDS011;10084;50.518;8.588;2023-11-21T13:13:01;1.47;;;1.03;;
19846;SDS011;10084;50.518;8.588;2023-11-21T13:15:30;0.90;;;0.80;;
19846;SDS011;10084;50.518;8.588;2023-11-21T13:17:58;1.33;;;0.73;;
19846;SDS011;10084;50.518;8.588;2023-11-21T13:20:24;4.43;;;0.97;;
19846;SDS011;10084;50.518;8.588;2023-11-21T13:22:51;1.47;;;1.37;;
19846;SDS011;10084;50.518;8.588;2023-11-21T13:25:20;4.10;;;0.60;;
19846;SDS011;10084;50.518;8.588;2023-11-21T13:27:46;7.00;;;1.17;;
19846;SDS011;10084;50.518;8.588;2023-11-21T13:30:13;4.33;;;1.10;;
19846;SDS011;10084;50.518;8.588;2023-11-21T13:32:48;0.60;;;0.60;;
19846;SDS011;10084;50.518;8.588;2023-11-21T13:35:16;1.43;;;0.83;;
19846;SDS011;10084;50.518;8.588;2023-11-21T13:37:51;0.97;;;0.60;;
19846;SDS011;10084;50.518;8.588;2023-11-21T13:40:21;0.50;;;0.50;;
19846;SDS011;10084;50.518;8.588;2023-11-21T13:42:51;1.50;;;1.17;;
19846;SDS011;10084;50.518;8.588;2023-11-21T13:45:19;4.73;;;0.87;;
19846;SDS011;10084;50.518;8.588;2023-11-21T13:47:49;1.47;;;1.30;;
19846;SDS011;10084;50.518;8.588;2023-11-21T13:50:27;1.50;;;0.97;;
19846;SDS011;10084;50.518;8.588;2023-11-21T13:52:59;7.13;;;1.37;;
19846;SDS011;10084;50.518;8.588;2023-11-21T13:55:45;5.00;;;0.80;;
19846;SDS011;10084;50.518;8.588;2023-11-21T13:58:11;1.00;;;0.87;;
19846;SDS011;10084;50.518;8.588;2023-11-21T14:00:43;6.57;;;1.40;;
19846;SDS011;10084;50.518;8.588;2023-11-21T14:03:19;1.67;;;1.57;;
19846;SDS011;10084;50.518;8.588;2023-11-21T14:05:46;2.63;;;1.40;;
19846;SDS011;10084;50.518;8.588;2023-11-21T14:08:20;3.10;;;1.23;;
19846;SDS011;10084;50.518;8.588;2023-11-21T14:10:49;0.93;;;0.83;;
19846;SDS011;10084;50.518;8.588;2023-11-21T14:13:18;1.93;;;1.60;;
19846;SDS011;10084;50.518;8.588;2023-11-21T14:15:48;4.07;;;1.80;;
19846;SDS011;10084;50.518;8.588;2023-11-21T14:18:16;2.27;;;2.07;;
19846;SDS011;10084;50.518;8.588;2023-11-21T14:20:43;9.70;;;1.87;;
19846;SDS011;10084;50.518;8.588;2023-11-21T14:23:09;1.03;;;0.97;;
19846;SDS011;10084;50.518;8.588;2023-11-21T14:25:36;8.83;;;1.07;;
19846;SDS011;10084;50.518;8.588;2023-11-21T14:28:04;1.87;;;1.53;;
19846;SDS011;10084;50.518;8.588;2023-11-21T14:30:31;8.07;;;2.00;;
19846;SDS011;10084;50.518;8.588;2023-11-21T14:33:00;4.17;;;0.90;;
19846;SDS011;10084;50.518;8.588;2023-11-21T14:35:29;2.43;;;1.37;;
19846;SDS011;10084;50.518;8.588;2023-11-21T14:37:58;3.87;;;1.30;;
19846;SDS011;10084;50.518;8.588;2023-11-21T14:40:25;1.43;;;1.13;;
19846;SDS011;10084;50.518;8.588;2023-11-21T14:42:54;1.50;;;1.40;;
19846;SDS011;10084;50.518;8.588;2023-11-21T14:45:22;6.77;;;1.20;;
19846;SDS011;10084;50.518;8.588;2023-11-21T14:47:51;2.47;;;2.27;;
19846;SDS011;10084;50.518;8.588;2023-11-21T14:50:30;4.20;;;1.50;;
19846;SDS011;10084;50.518;8.588;2023-11-21T14:53:15;2.00;;;1.80;;
19846;SDS011;10084;50.518;8.588;2023-11-21T14:55:42;3.30;;;2.37;;
19846;SDS011;10084;50.518;8.588;2023-11-21T14:58:17;11.97;;;3.47;;
19846;SDS011;10084;50.518;8.588;2023-11-21T15:00:57;7.80;;;4.43;;
19846;SDS011;10084;50.518;8.588;2023-11-21T15:03:24;8.37;;;5.00;;
19846;SDS011;10084;50.518;8.588;2023-11-21T15:05:57;4.60;;;2.20;;